Time;durP1;ratioP1;P1;durP2;ratioP2;P2;SDS_P1;SDS_P2;PMS_P1;PMS_P2;Temp;Humidity;BMP_temperature;BMP_pressure;BME280_temperature;BME280_humidity;BME280_pressure;Samples;Min_cycle;Max_cycle;Signal;HPM_P1;HPM_P2
2022/12/12 00:02:19;;;;;;;4.50;4.30;;;17.00;62.30;;;;;;5084458;27;43510;-70
2022/12/12 00:04:48;;;;;;;4.50;4.30;;;17.00;62.30;;;;;;5081263;27;43847;-72
2022/12/12 00:07:16;;;;;;;5.07;4.77;;;17.00;62.40;;;;;;5066030;28;44690;-72
2022/12/12 00:09:44;;;;;;;5.07;4.83;;;17.00;62.50;;;;;;5085155;27;44077;-71
2022/12/12 00:12:12;;;;;;;4.63;4.43;;;17.00;62.50;;;;;;5090099;27;43434;-73
2022/12/12 00:14:40;;;;;;;4.60;4.40;;;17.00;62.50;;;;;;5071620;27;45581;-70
2022/12/12 00:17:08;;;;;;;4.90;4.70;;;16.90;62.40;;;;;;5070945;28;44953;-71
2022/12/12 00:19:36;;;;;;;4.73;4.53;;;16.90;62.50;;;;;;5087760;28;43422;-71
2022/12/12 00:22:05;;;;;;;4.43;4.33;;;16.90;62.50;;;;;;5087787;27;43526;-70
2022/12/12 00:24:33;;;;;;;4.67;4.47;;;16.90;62.60;;;;;;5085526;28;43925;-71
2022/12/12 00:27:01;;;;;;;4.43;4.23;;;16.90;62.80;;;;;;5087987;28;43469;-70
2022/12/12 00:29:29;;;;;;;4.97;4.77;;;16.90;62.70;;;;;;5087812;28;43410;-70
2022/12/12 00:31:57;;;;;;;4.37;4.27;;;17.00;62.40;;;;;;5085592;27;43508;-72
2022/12/12 00:34:25;;;;;;;4.07;3.87;;;17.00;62.20;;;;;;5085339;27;43925;-71
2022/12/12 00:36:53;;;;;;;4.20;4.10;;;17.00;62.20;;;;;;5065196;28;44760;-70
2022/12/12 00:39:22;;;;;;;4.67;4.47;;;17.00;62.30;;;;;;5067466;27;43932;-70
2022/12/12 00:41:50;;;;;;;4.17;4.07;;;16.90;62.30;;;;;;5086587;27;44042;-70
2022/12/12 00:44:18;;;;;;;4.40;4.20;;;17.00;63.20;;;;;;5088874;27;43908;-72
2022/12/12 00:46:46;;;;;;;4.60;4.40;;;17.00;62.50;;;;;;5066476;27;44939;-74
2022/12/12 00:49:14;;;;;;;4.33;4.13;;;16.90;62.40;;;;;;5065962;27;43478;-71
2022/12/12 00:51:43;;;;;;;4.60;4.40;;;17.00;62.50;;;;;;5085030;27;43992;-71
2022/12/12 00:54:11;;;;;;;3.87;3.77;;;16.90;62.50;;;;;;5066525;27;45284;-70
2022/12/12 00:56:40;;;;;;;4.43;4.23;;;16.90;62.50;;;;;;5083172;27;43995;-71
2022/12/12 00:59:08;;;;;;;4.03;3.93;;;16.90;62.80;;;;;;5067587;28;43537;-70
2022/12/12 01:01:36;;;;;;;4.57;4.37;;;16.90;62.80;;;;;;5085140;27;44049;-71
2022/12/12 01:04:05;;;;;;;4.43;4.23;;;17.00;62.50;;;;;;5077620;27;43681;-72
2022/12/12 01:06:33;;;;;;;4.10;4.00;;;17.00;62.30;;;;;;5063086;27;45184;-72
2022/12/12 01:09:01;;;;;;;4.60;4.40;;;17.00;62.20;;;;;;5079594;27;43901;-70
2022/12/12 01:11:29;;;;;;;4.50;4.40;;;17.00;62.20;;;;;;5080220;28;43561;-70
2022/12/12 01:13:58;;;;;;;4.17;4.07;;;17.00;62.50;;;;;;5083059;27;43944;-70
2022/12/12 01:16:26;;;;;;;4.00;3.90;;;17.00;62.50;;;;;;5065655;28;44650;-70
2022/12/12 01:18:54;;;;;;;4.23;4.13;;;17.00;62.40;;;;;;5077688;27;43403;-71
2022/12/12 01:21:22;;;;;;;4.30;4.10;;;17.00;62.50;;;;;;5078353;27;43474;-70
2022/12/12 01:23:50;;;;;;;4.00;3.90;;;16.90;62.40;;;;;;5077687;27;43911;-71
2022/12/12 01:26:20;;;;;;;4.57;4.37;;;16.90;62.50;;;;;;5079313;27;43468;-70
2022/12/12 01:28:48;;;;;;;4.30;4.10;;;16.90;62.60;;;;;;5079801;27;43457;-70
2022/12/12 01:31:17;;;;;;;4.53;4.33;;;16.90;62.70;;;;;;5067206;28;43380;-74
2022/12/12 01:33:45;;;;;;;4.70;4.40;;;16.90;62.60;;;;;;5081247;27;43690;-72
2022/12/12 01:36:15;;;;;;;4.70;4.50;;;16.90;62.60;;;;;;5081382;27;43439;-71
2022/12/12 01:38:44;;;;;;;4.07;3.97;;;16.90;62.60;;;;;;5065859;28;43934;-71
2022/12/12 01:41:12;;;;;;;4.40;4.20;;;16.90;63.40;;;;;;5075061;27;43501;-73
2022/12/12 01:43:41;;;;;;;4.27;4.13;;;16.90;62.70;;;;;;5078991;28;43920;-70
2022/12/12 01:46:43;;;;;;;4.33;4.20;;;16.90;62.90;;;;;;5084778;27;43415;-71
2022/12/12 01:49:17;;;;;;;4.50;4.30;;;16.90;62.90;;;;;;5073768;27;43506;-71
2022/12/12 01:51:46;;;;;;;4.27;4.07;;;17.00;62.60;;;;;;5057867;28;43503;-72
2022/12/12 01:54:15;;;;;;;4.17;4.00;;;17.00;62.20;;;;;;5085432;27;43612;-70
2022/12/12 01:56:43;;;;;;;4.00;3.90;;;17.00;62.20;;;;;;5056458;28;44950;-71
2022/12/12 01:59:12;;;;;;;4.40;4.20;;;17.00;62.20;;;;;;5075711;28;43434;-70
2022/12/12 02:01:41;;;;;;;4.00;3.90;;;17.00;62.40;;;;;;5064970;27;43561;-71
2022/12/12 02:04:10;;;;;;;4.33;4.13;;;17.00;62.40;;;;;;5071659;27;43861;-71
2022/12/12 02:06:38;;;;;;;4.67;4.47;;;17.00;62.40;;;;;;5079031;28;43430;-70
2022/12/12 02:09:07;;;;;;;4.20;4.10;;;17.00;62.40;;;;;;5082381;27;44048;-71
2022/12/12 02:11:38;;;;;;;3.93;3.80;;;17.00;62.50;;;;;;5063801;28;43508;-73
2022/12/12 02:14:06;;;;;;;4.00;3.90;;;16.90;62.50;;;;;;5062746;28;45881;-70
2022/12/12 02:16:49;;;;;;;4.43;4.23;;;16.90;62.50;;;;;;5065130;27;45161;-70
2022/12/12 02:19:47;;;;;;;4.33;4.13;;;16.90;62.60;;;;;;5077508;28;44019;-72
2022/12/12 02:22:19;;;;;;;4.53;4.43;;;16.90;62.60;;;;;;5064825;27;43640;-71
2022/12/12 02:24:58;;;;;;;4.13;4.03;;;16.90;62.60;;;;;;5084391;27;43607;-70
2022/12/12 02:27:35;;;;;;;4.27;4.07;;;16.90;62.70;;;;;;5058077;28;45128;-72
2022/12/12 02:30:16;;;;;;;4.20;4.00;;;16.90;62.70;;;;;;5074027;27;43547;-71
2022/12/12 02:33:06;;;;;;;4.20;4.10;;;16.90;62.80;;;;;;5082398;27;43565;-71
2022/12/12 02:35:40;;;;;;;4.67;4.47;;;16.90;62.90;;;;;;5061723;28;43908;-71
2022/12/12 02:38:13;;;;;;;4.13;3.93;;;16.90;62.70;;;;;;5081017;27;43425;-71
2022/12/12 02:40:45;;;;;;;4.50;4.30;;;17.00;62.40;;;;;;5083228;27;43461;-71
2022/12/12 02:43:17;;;;;;;4.23;4.03;;;17.00;62.20;;;;;;5071121;27;43973;-73
2022/12/12 02:45:47;;;;;;;4.07;3.97;;;17.00;62.20;;;;;;5077609;27;43927;-70
2022/12/12 02:48:19;;;;;;;4.90;4.60;;;17.00;62.20;;;;;;5058249;28;44562;-71
2022/12/12 02:50:47;;;;;;;4.60;4.40;;;17.00;62.50;;;;;;5081723;27;43458;-73
2022/12/12 02:53:17;;;;;;;4.07;3.90;;;17.00;62.40;;;;;;5086725;27;43490;-71
2022/12/12 02:55:45;;;;;;;4.47;4.27;;;16.90;62.30;;;;;;5081736;27;43939;-70
2022/12/12 02:58:13;;;;;;;3.93;3.80;;;17.00;62.50;;;;;;5081202;27;43652;-71
2022/12/12 03:00:49;;;;;;;4.00;3.90;;;16.90;62.50;;;;;;5087553;27;43933;-70
2022/12/12 03:09:11;;;;;;;3.70;3.60;;;16.90;62.70;;;;;;5067511;28;43466;-70
2022/12/12 03:11:46;;;;;;;4.10;4.00;;;16.90;62.60;;;;;;5080394;27;43639;-72
2022/12/12 03:14:17;;;;;;;3.60;3.50;;;16.90;62.60;;;;;;5079982;27;44639;-72
2022/12/12 03:16:47;;;;;;;4.53;4.33;;;16.90;62.70;;;;;;5081807;27;43927;-69
2022/12/12 03:19:19;;;;;;;4.33;4.17;;;16.90;63.10;;;;;;5077027;27;43440;-70
2022/12/12 03:21:49;;;;;;;4.23;4.03;;;16.90;62.90;;;;;;5077768;27;44283;-71
2022/12/12 03:24:20;;;;;;;4.17;3.97;;;16.90;62.90;;;;;;5089108;27;43559;-72
2022/12/12 03:26:51;;;;;;;4.00;3.90;;;16.90;62.60;;;;;;5064811;28;46023;-71
2022/12/12 03:29:22;;;;;;;4.00;3.80;;;17.00;62.40;;;;;;5068157;27;44429;-71
2022/12/12 03:31:52;;;;;;;4.07;3.97;;;17.00;63.00;;;;;;5086810;27;43429;-70
2022/12/12 03:34:24;;;;;;;3.60;3.50;;;17.00;62.30;;;;;;5086356;27;43504;-72
2022/12/12 03:36:53;;;;;;;3.70;3.60;;;17.00;62.40;;;;;;5085351;27;43900;-69
2022/12/12 03:39:24;;;;;;;4.30;4.10;;;17.00;62.60;;;;;;5066526;27;44442;-70
2022/12/12 03:41:54;;;;;;;4.30;4.10;;;17.00;62.50;;;;;;5068813;28;43516;-70
2022/12/12 03:44:24;;;;;;;3.87;3.77;;;16.90;62.50;;;;;;5087788;27;43497;-72
2022/12/12 03:46:53;;;;;;;4.27;4.07;;;16.90;62.50;;;;;;5087470;27;43898;-72
2022/12/12 03:49:24;;;;;;;4.07;3.87;;;16.90;62.50;;;;;;5085114;27;43459;-70
2022/12/12 03:51:55;;;;;;;3.87;3.77;;;16.90;62.60;;;;;;5085619;27;43955;-70
2022/12/12 03:54:24;;;;;;;3.90;3.80;;;16.90;62.80;;;;;;5086859;27;44470;-72
2022/12/12 03:56:54;;;;;;;4.30;4.10;;;16.80;62.60;;;;;;5086514;27;43858;-71
2022/12/12 03:59:24;;;;;;;3.90;3.70;;;16.90;62.60;;;;;;5085324;27;43916;-70
2022/12/12 04:01:57;;;;;;;3.70;3.60;;;16.90;62.60;;;;;;5084918;27;43444;-72
2022/12/12 04:04:28;;;;;;;3.90;3.80;;;16.90;62.70;;;;;;5085116;27;43558;-72
2022/12/12 04:06:59;;;;;;;4.07;3.97;;;16.90;62.70;;;;;;5088677;27;43899;-70
2022/12/12 04:15:16;;;;;;;3.77;3.67;;;16.90;62.80;;;;;;5084971;27;43457;-72
2022/12/12 04:17:47;;;;;;;4.03;3.83;;;17.00;62.30;;;;;;5084702;27;44119;-71
2022/12/12 04:23:16;;;;;;;3.83;3.63;;;17.00;62.10;;;;;;5082314;27;44351;-73
2022/12/12 04:29:02;;;;;;;3.37;3.27;;;17.00;62.40;;;;;;5023536;28;44087;-70
2022/12/12 04:31:31;;;;;;;3.50;3.40;;;17.00;62.30;;;;;;5072043;27;43624;-71
2022/12/12 04:34:02;;;;;;;3.53;3.43;;;17.00;62.30;;;;;;5084938;27;43493;-70
2022/12/12 04:36:31;;;;;;;4.50;4.20;;;17.00;62.40;;;;;;5082260;27;43493;-71
2022/12/12 04:38:59;;;;;;;3.63;3.53;;;16.90;62.40;;;;;;5065778;27;46886;-70
2022/12/12 04:41:27;;;;;;;4.13;4.03;;;16.90;62.50;;;;;;5084633;27;43536;-71
2022/12/12 04:43:55;;;;;;;3.57;3.47;;;16.90;62.60;;;;;;5084521;27;43507;-71
2022/12/12 04:46:24;;;;;;;3.77;3.67;;;16.90;62.50;;;;;;5085448;27;43481;-73
2022/12/12 04:48:53;;;;;;;3.73;3.53;;;16.90;62.50;;;;;;5066232;27;45713;-70
2022/12/12 04:51:24;;;;;;;3.60;3.50;;;16.90;62.50;;;;;;5081593;27;43434;-71
2022/12/12 04:53:56;;;;;;;3.50;3.40;;;16.90;62.50;;;;;;5085758;27;44043;-71
2022/12/12 04:56:26;;;;;;;3.77;3.67;;;16.90;62.50;;;;;;5086279;27;43502;-70
2022/12/12 04:58:54;;;;;;;3.90;3.80;;;16.90;62.80;;;;;;5086360;27;43614;-73
2022/12/12 05:01:23;;;;;;;3.63;3.50;;;16.90;63.50;;;;;;5083342;27;43898;-71
2022/12/12 05:03:53;;;;;;;3.73;3.63;;;17.00;62.60;;;;;;5083583;27;43473;-71
2022/12/12 05:06:22;;;;;;;3.83;3.73;;;17.00;62.20;;;;;;5084938;27;43454;-70
2022/12/12 05:08:51;;;;;;;3.50;3.40;;;17.00;62.10;;;;;;5084693;27;43932;-70
2022/12/12 05:11:21;;;;;;;3.70;3.60;;;17.00;62.00;;;;;;5084493;27;43528;-72
2022/12/12 05:13:49;;;;;;;3.60;3.50;;;17.00;62.10;;;;;;5085729;27;43452;-69
2022/12/12 05:16:18;;;;;;;3.80;3.70;;;17.00;62.40;;;;;;5083639;27;44861;-71
2022/12/12 05:18:46;;;;;;;3.53;3.43;;;17.00;62.20;;;;;;5064336;27;45987;-72
2022/12/12 05:21:14;;;;;;;3.40;3.30;;;17.00;62.20;;;;;;5066432;27;44292;-71
2022/12/12 05:23:42;;;;;;;3.60;3.50;;;17.00;62.20;;;;;;5063756;28;43591;-71
2022/12/12 05:26:18;;;;;;;3.80;3.70;;;16.90;62.20;;;;;;5084980;27;43578;-73
2022/12/12 05:28:47;;;;;;;3.90;3.80;;;16.90;62.20;;;;;;5084489;27;43860;-70
2022/12/12 05:31:15;;;;;;;3.43;3.33;;;16.90;62.40;;;;;;5087286;27;43462;-70
2022/12/12 05:33:44;;;;;;;3.37;3.27;;;16.90;62.60;;;;;;5083648;27;44184;-72
2022/12/12 05:36:12;;;;;;;4.03;3.83;;;17.00;62.40;;;;;;5084094;27;44142;-70
2022/12/12 05:38:40;;;;;;;3.50;3.40;;;17.00;62.20;;;;;;5084620;27;43996;-70
2022/12/12 05:41:08;;;;;;;3.53;3.43;;;17.00;62.00;;;;;;5065559;27;44620;-70
2022/12/12 05:43:36;;;;;;;3.53;3.43;;;17.00;62.10;;;;;;5065039;27;43467;-71
2022/12/12 05:46:05;;;;;;;3.57;3.47;;;17.00;62.20;;;;;;5083995;27;44074;-71
2022/12/12 05:48:33;;;;;;;3.40;3.30;;;16.90;62.30;;;;;;5080497;27;44031;-73
2022/12/12 05:51:01;;;;;;;3.53;3.43;;;17.00;62.30;;;;;;5082919;27;43425;-72
2022/12/12 05:53:29;;;;;;;3.40;3.30;;;17.00;62.10;;;;;;5082147;27;43963;-71
2022/12/12 05:55:57;;;;;;;3.37;3.27;;;17.00;62.10;;;;;;5085621;27;43444;-70
2022/12/12 05:58:25;;;;;;;3.70;3.60;;;16.90;62.20;;;;;;5080441;27;44113;-71
2022/12/12 06:00:53;;;;;;;3.33;3.23;;;16.90;62.30;;;;;;5076276;27;43619;-71
2022/12/12 06:03:31;;;;;;;3.60;3.50;;;16.90;62.50;;;;;;5078938;27;44145;-72
2022/12/12 06:05:59;;;;;;;3.63;3.53;;;16.90;62.50;;;;;;5081346;27;43494;-72
2022/12/12 06:08:27;;;;;;;3.47;3.37;;;16.90;62.40;;;;;;5079940;27;45720;-71
2022/12/12 06:10:56;;;;;;;3.30;3.20;;;16.90;62.50;;;;;;5065068;28;45590;-73
2022/12/12 06:13:24;;;;;;;3.50;3.40;;;16.90;62.50;;;;;;5083550;27;44288;-73
2022/12/12 06:15:52;;;;;;;3.23;3.13;;;16.90;62.60;;;;;;5079305;27;43450;-70
2022/12/12 06:18:20;;;;;;;3.60;3.50;;;16.90;62.70;;;;;;5080406;27;43595;-72
2022/12/12 06:20:49;;;;;;;3.30;3.20;;;16.90;62.80;;;;;;5087700;27;43878;-70
2022/12/12 06:23:17;;;;;;;3.83;3.73;;;16.90;62.70;;;;;;5087693;27;44159;-70
2022/12/12 06:25:45;;;;;;;3.20;3.10;;;17.00;62.40;;;;;;5087005;27;43504;-71
2022/12/12 06:28:13;;;;;;;3.30;3.20;;;17.00;62.00;;;;;;5086887;27;44010;-71
2022/12/12 06:30:41;;;;;;;3.53;3.43;;;17.00;61.90;;;;;;5083302;27;44244;-71
2022/12/12 06:33:09;;;;;;;3.17;3.07;;;17.00;61.90;;;;;;5087245;27;43481;-70
2022/12/12 06:35:36;;;;;;;3.73;3.63;;;17.00;62.20;;;;;;5088747;27;43591;-72
2022/12/12 06:38:06;;;;;;;3.50;3.40;;;17.00;62.20;;;;;;5089937;27;43908;-71
2022/12/12 06:40:34;;;;;;;3.20;3.10;;;16.90;62.10;;;;;;5089959;27;43527;-72
2022/12/12 06:43:02;;;;;;;3.43;3.23;;;17.00;62.20;;;;;;5085429;27;45237;-70
2022/12/12 06:45:30;;;;;;;3.47;3.37;;;16.90;62.50;;;;;;5087936;27;43387;-72
2022/12/12 06:47:58;;;;;;;3.47;3.37;;;16.90;62.20;;;;;;5086303;27;45082;-70
2022/12/12 06:50:26;;;;;;;3.30;3.10;;;16.90;62.30;;;;;;5088131;27;43618;-71
2022/12/12 06:52:53;;;;;;;3.40;3.30;;;16.90;62.50;;;;;;5088622;27;43902;-70
2022/12/12 06:55:23;;;;;;;3.40;3.30;;;16.90;62.40;;;;;;5085979;27;44228;-73
2022/12/12 06:57:51;;;;;;;3.27;3.17;;;16.90;62.30;;;;;;5065367;27;46029;-71
2022/12/12 07:00:19;;;;;;;3.80;3.70;;;16.90;62.40;;;;;;5086473;27;44273;-70
2022/12/12 07:02:47;;;;;;;3.13;3.03;;;16.90;62.30;;;;;;5086389;27;43496;-74
2022/12/12 07:05:15;;;;;;;3.70;3.60;;;16.90;62.40;;;;;;5086824;27;43712;-72
2022/12/12 07:07:43;;;;;;;3.50;3.40;;;16.90;62.50;;;;;;5086738;27;43594;-70
2022/12/12 07:10:11;;;;;;;3.37;3.27;;;16.90;62.50;;;;;;5086852;27;43904;-71
2022/12/12 07:12:40;;;;;;;3.50;3.40;;;17.00;62.40;;;;;;5084803;27;43811;-71
2022/12/12 07:15:14;;;;;;;3.30;3.20;;;17.10;62.00;;;;;;5087030;27;43401;-72
2022/12/12 07:17:42;;;;;;;3.20;3.10;;;17.10;61.80;;;;;;5085971;27;43603;-71
2022/12/12 07:20:11;;;;;;;3.67;3.50;;;17.10;61.70;;;;;;5085459;27;43563;-72
2022/12/12 07:22:39;;;;;;;3.50;3.40;;;17.10;61.80;;;;;;5087093;27;43454;-71
2022/12/12 07:25:07;;;;;;;3.30;3.20;;;17.10;62.00;;;;;;5086566;27;43518;-70
2022/12/12 07:27:35;;;;;;;3.10;3.00;;;17.00;61.80;;;;;;5086568;27;43616;-70
2022/12/12 07:30:05;;;;;;;3.53;3.43;;;17.10;61.90;;;;;;5086436;27;43499;-72
2022/12/12 07:32:33;;;;;;;3.27;3.17;;;17.00;61.90;;;;;;5083033;27;43950;-71
2022/12/12 07:35:01;;;;;;;3.57;3.47;;;17.00;62.00;;;;;;5085593;27;43390;-70
2022/12/12 07:37:29;;;;;;;3.60;3.50;;;17.00;62.20;;;;;;5070023;27;45611;-74
2022/12/12 07:39:57;;;;;;;3.03;2.93;;;17.00;62.40;;;;;;5078474;27;44738;-71
2022/12/12 07:42:25;;;;;;;3.17;3.07;;;17.00;62.30;;;;;;5083565;27;43983;-71
2022/12/12 07:44:53;;;;;;;3.57;3.47;;;16.90;62.20;;;;;;5085734;27;43393;-71
2022/12/12 07:47:22;;;;;;;3.70;3.60;;;17.00;62.30;;;;;;5085665;27;44794;-71
2022/12/12 07:49:50;;;;;;;3.50;3.40;;;16.90;62.20;;;;;;5081246;27;43429;-72
2022/12/12 07:52:18;;;;;;;3.40;3.30;;;16.90;62.30;;;;;;5085728;27;43413;-72
2022/12/12 07:54:46;;;;;;;3.47;3.37;;;16.90;62.50;;;;;;5086502;27;43580;-70
2022/12/12 07:57:14;;;;;;;3.30;3.20;;;16.90;62.40;;;;;;5068973;28;45667;-71
2022/12/12 07:59:42;;;;;;;3.33;3.23;;;16.90;62.30;;;;;;5068205;27;44818;-71
2022/12/12 08:02:10;;;;;;;3.30;3.20;;;16.90;62.30;;;;;;5084747;27;43524;-71
2022/12/12 08:04:39;;;;;;;3.37;3.27;;;16.90;62.30;;;;;;5086033;27;43473;-73
2022/12/12 08:07:07;;;;;;;3.53;3.43;;;16.90;62.40;;;;;;5085659;27;44666;-71
2022/12/12 08:09:36;;;;;;;3.40;3.30;;;16.90;62.40;;;;;;5066967;27;44745;-70
2022/12/12 08:12:04;;;;;;;3.43;3.33;;;16.90;62.60;;;;;;5081325;27;43639;-72
2022/12/12 08:14:32;;;;;;;4.07;3.90;;;16.90;62.50;;;;;;5086335;27;43467;-70
2022/12/12 08:17:00;;;;;;;3.50;3.40;;;17.00;62.10;;;;;;5087037;27;44116;-71
2022/12/12 08:19:28;;;;;;;3.20;3.10;;;17.10;61.80;;;;;;5084074;27;43960;-72
2022/12/12 08:21:57;;;;;;;3.37;3.27;;;17.10;61.60;;;;;;5082738;27;43370;-71
2022/12/12 08:24:27;;;;;;;3.20;3.10;;;17.10;61.60;;;;;;5080151;27;43952;-71
2022/12/12 08:26:55;;;;;;;3.40;3.30;;;17.10;61.90;;;;;;5066983;28;45876;-71
2022/12/12 08:29:23;;;;;;;3.37;3.27;;;17.10;62.00;;;;;;5085407;27;43994;-70
2022/12/12 08:31:51;;;;;;;3.67;3.57;;;17.10;61.80;;;;;;5089665;27;44026;-71
2022/12/12 08:34:18;;;;;;;3.50;3.30;;;17.00;61.70;;;;;;5089299;27;44069;-72
2022/12/12 08:36:47;;;;;;;3.30;3.20;;;17.00;61.90;;;;;;5082856;28;43916;-71
2022/12/12 08:39:17;;;;;;;3.17;3.07;;;17.00;62.00;;;;;;5087415;28;43570;-71
2022/12/12 08:41:46;;;;;;;3.63;3.53;;;17.00;62.10;;;;;;5088458;27;43442;-70
2022/12/12 08:44:15;;;;;;;3.57;3.47;;;17.00;62.30;;;;;;5085755;27;43481;-71
2022/12/12 08:46:43;;;;;;;3.37;3.27;;;17.00;62.20;;;;;;5085052;27;44526;-70
2022/12/12 08:49:11;;;;;;;3.20;3.10;;;17.00;62.20;;;;;;5062740;28;44406;-70
2022/12/12 08:51:39;;;;;;;3.50;3.40;;;17.00;62.20;;;;;;5083000;28;43710;-70
2022/12/12 08:54:07;;;;;;;3.13;3.03;;;16.90;62.10;;;;;;5067023;27;43800;-71
2022/12/12 08:56:36;;;;;;;4.07;3.87;;;16.90;62.10;;;;;;5084579;28;44073;-72
2022/12/12 08:59:04;;;;;;;3.70;3.60;;;16.90;62.00;;;;;;5084793;28;43570;-71
2022/12/12 09:01:32;;;;;;;3.90;3.70;;;16.90;61.90;;;;;;5065312;28;44161;-70
2022/12/12 09:04:01;;;;;;;3.73;3.63;;;16.90;61.80;;;;;;5085308;28;43959;-72
2022/12/12 09:06:29;;;;;;;3.97;3.87;;;17.00;61.80;;;;;;5083837;27;43821;-72
2022/12/12 09:08:58;;;;;;;3.87;3.67;;;17.00;61.70;;;;;;5064185;28;44291;-70
2022/12/12 09:11:26;;;;;;;3.57;3.47;;;17.00;61.80;;;;;;5066623;28;44049;-70
2022/12/12 09:13:55;;;;;;;4.13;4.00;;;17.00;61.80;;;;;;5086002;28;44040;-70
2022/12/12 09:16:25;;;;;;;4.17;4.07;;;17.00;61.90;;;;;;5084748;28;44796;-70
2022/12/12 09:18:53;;;;;;;4.20;4.10;;;16.90;61.90;;;;;;5083926;28;43468;-70
2022/12/12 09:21:21;;;;;;;4.30;4.10;;;17.00;61.90;;;;;;5085557;28;43497;-71
2022/12/12 09:23:50;;;;;;;4.40;4.20;;;17.00;62.00;;;;;;5066759;28;43962;-72
2022/12/12 09:26:17;;;;;;;4.60;4.30;;;17.00;61.90;;;;;;5085595;28;43813;-70
2022/12/12 09:28:45;;;;;;;4.60;4.40;;;17.00;62.00;;;;;;5084216;28;43591;-70
2022/12/12 09:31:15;;;;;;;4.33;4.13;;;16.90;61.90;;;;;;5066992;28;44166;-70
2022/12/12 09:33:43;;;;;;;4.50;4.30;;;16.90;62.00;;;;;;5084476;28;43847;-72
2022/12/12 09:36:11;;;;;;;4.33;4.13;;;17.00;62.00;;;;;;5084338;28;43879;-70
2022/12/12 09:38:40;;;;;;;4.10;3.90;;;16.90;61.90;;;;;;5084383;28;43543;-71
2022/12/12 09:41:11;;;;;;;4.53;4.33;;;17.00;62.00;;;;;;5066052;28;43509;-71
2022/12/12 09:43:43;;;;;;;4.30;4.10;;;16.90;62.00;;;;;;5085393;28;43995;-70
2022/12/12 09:46:15;;;;;;;4.33;4.20;;;16.90;62.00;;;;;;5081584;27;43852;-72
2022/12/12 09:48:44;;;;;;;4.93;4.53;;;16.90;62.00;;;;;;5062604;28;44668;-70
2022/12/12 09:51:12;;;;;;;4.63;4.37;;;16.90;61.80;;;;;;5081334;27;44067;-70
2022/12/12 09:53:41;;;;;;;5.00;4.70;;;17.00;61.60;;;;;;5083567;27;43538;-71
2022/12/12 09:56:10;;;;;;;5.00;4.70;;;17.00;61.50;;;;;;5085143;27;43943;-71
2022/12/12 09:58:41;;;;;;;5.10;4.70;;;17.00;61.50;;;;;;5064689;28;46535;-70
2022/12/12 10:01:20;;;;;;;4.53;4.33;;;17.00;61.60;;;;;;5083156;27;43409;-71
2022/12/12 10:03:58;;;;;;;4.53;4.33;;;17.00;61.60;;;;;;5080734;28;43937;-72
2022/12/12 10:06:26;;;;;;;4.53;4.23;;;17.00;61.60;;;;;;5087960;27;43760;-71
2022/12/12 10:09:14;;;;;;;4.80;4.60;;;17.00;61.60;;;;;;5067413;28;43606;-70
2022/12/12 10:11:53;;;;;;;5.33;4.57;;;17.00;61.60;;;;;;5085202;28;44081;-70
2022/12/12 10:14:26;;;;;;;5.07;4.77;;;17.00;61.70;;;;;;5083432;27;43505;-70
2022/12/12 10:16:56;;;;;;;4.73;4.50;;;17.00;61.80;;;;;;5085555;27;43748;-70
2022/12/12 10:19:26;;;;;;;5.23;4.90;;;17.00;61.80;;;;;;5085570;27;43473;-71
2022/12/12 10:21:56;;;;;;;4.90;4.60;;;17.00;61.90;;;;;;5065771;27;43574;-72
2022/12/12 10:24:28;;;;;;;4.97;4.60;;;17.00;61.90;;;;;;5081284;27;43523;-72
2022/12/12 10:26:57;;;;;;;5.63;5.17;;;17.00;61.90;;;;;;5078077;27;45630;-70
2022/12/12 10:29:26;;;;;;;5.30;5.00;;;17.00;62.00;;;;;;5084372;27;43458;-70
2022/12/12 10:31:59;;;;;;;5.80;5.40;;;17.00;62.20;;;;;;5086764;27;43478;-71
2022/12/12 10:34:36;;;;;;;6.10;5.20;;;16.90;62.20;;;;;;5083676;27;43579;-70
2022/12/12 10:37:11;;;;;;;6.13;5.33;;;17.00;62.20;;;;;;5084165;27;43953;-71
2022/12/12 10:39:44;;;;;;;5.77;5.37;;;17.00;61.90;;;;;;5083205;27;43968;-70
2022/12/12 10:42:15;;;;;;;5.87;5.47;;;17.10;61.90;;;;;;5083592;27;43509;-70
2022/12/12 10:44:51;;;;;;;5.70;5.20;;;17.10;61.70;;;;;;5082466;27;44182;-74
2022/12/12 10:47:21;;;;;;;6.20;5.60;;;17.10;61.50;;;;;;5081384;27;44044;-72
2022/12/12 10:49:49;;;;;;;6.87;6.20;;;17.10;61.70;;;;;;5087211;27;45172;-72
2022/12/12 10:52:19;;;;;;;6.17;5.67;;;17.00;61.60;;;;;;5084396;27;43501;-71
2022/12/12 10:54:49;;;;;;;6.20;5.80;;;17.00;61.60;;;;;;5086047;27;43512;-70
2022/12/12 10:57:20;;;;;;;5.93;5.53;;;17.00;61.40;;;;;;5067026;27;46225;-73
2022/12/12 10:59:50;;;;;;;6.30;5.70;;;17.00;61.40;;;;;;5083134;27;43456;-73
2022/12/12 11:02:29;;;;;;;5.73;5.23;;;17.00;61.40;;;;;;5084362;27;43386;-70
2022/12/12 11:05:03;;;;;;;6.87;5.57;;;17.00;61.40;;;;;;5064010;27;43514;-71
2022/12/12 11:07:31;;;;;;;6.37;5.87;;;17.00;61.50;;;;;;5072618;27;47185;-71
2022/12/12 11:09:59;;;;;;;6.00;5.10;;;17.00;61.50;;;;;;5086307;27;43400;-70
2022/12/12 11:12:33;;;;;;;5.80;5.40;;;16.90;61.40;;;;;;5087133;27;43437;-70
2022/12/12 11:15:03;;;;;;;6.10;5.60;;;17.00;61.50;;;;;;5082751;27;43443;-72
2022/12/12 11:17:33;;;;;;;6.10;5.60;;;17.00;61.40;;;;;;5086637;27;43789;-72
2022/12/12 11:20:02;;;;;;;6.17;5.67;;;16.90;61.40;;;;;;5087643;27;43532;-70
2022/12/12 11:22:31;;;;;;;6.20;5.70;;;16.90;61.60;;;;;;5089505;27;44015;-70
2022/12/12 11:24:59;;;;;;;6.20;5.80;;;16.90;61.50;;;;;;5086419;27;43426;-71
2022/12/12 11:27:29;;;;;;;6.03;5.53;;;17.00;61.30;;;;;;5087282;27;43842;-71
2022/12/12 11:29:59;;;;;;;5.60;5.20;;;17.00;61.10;;;;;;5086671;27;43510;-72
2022/12/12 11:32:28;;;;;;;5.90;5.50;;;17.00;61.10;;;;;;5092442;27;43528;-70
2022/12/12 11:34:59;;;;;;;5.83;5.33;;;17.00;61.00;;;;;;5088928;27;43851;-71
2022/12/12 11:37:28;;;;;;;5.83;5.33;;;17.00;61.10;;;;;;5086015;27;44102;-71
2022/12/12 11:39:56;;;;;;;6.37;5.60;;;17.00;61.20;;;;;;5068641;27;44675;-70
2022/12/12 11:42:25;;;;;;;5.67;5.23;;;17.00;61.20;;;;;;5081732;27;43457;-71
2022/12/12 11:44:58;;;;;;;5.77;5.37;;;17.00;61.20;;;;;;5085200;27;43477;-72
2022/12/12 11:47:27;;;;;;;5.47;4.97;;;17.00;61.90;;;;;;5068240;27;45519;-71
2022/12/12 11:49:55;;;;;;;5.47;5.07;;;17.00;61.20;;;;;;5087406;27;43411;-71
2022/12/12 11:52:27;;;;;;;6.10;5.70;;;16.90;61.20;;;;;;5085867;27;44083;-70
2022/12/12 11:54:55;;;;;;;5.33;4.97;;;17.00;61.40;;;;;;5088863;27;43386;-70
2022/12/12 11:57:31;;;;;;;5.80;5.37;;;17.00;61.50;;;;;;5067391;28;45550;-71
2022/12/12 12:00:05;;;;;;;5.97;5.57;;;17.00;61.20;;;;;;5082474;28;43495;-70
2022/12/12 12:03:04;;;;;;;6.17;5.77;;;17.00;61.10;;;;;;5082644;28;43523;-69
2022/12/12 12:05:36;;;;;;;5.50;5.10;;;17.00;61.10;;;;;;5082184;27;43510;-72
2022/12/12 12:08:13;;;;;;;5.40;5.10;;;17.00;61.10;;;;;;5088199;28;43770;-70
2022/12/12 12:10:50;;;;;;;5.67;5.27;;;17.00;61.90;;;;;;5083480;28;43399;-72
2022/12/12 12:13:31;;;;;;;5.30;5.00;;;17.00;61.20;;;;;;5061485;28;43752;-72
2022/12/12 12:16:03;;;;;;;5.47;5.17;;;17.00;61.20;;;;;;5084499;28;43474;-71
2022/12/12 12:18:38;;;;;;;5.63;5.23;;;17.00;61.20;;;;;;5080924;28;43777;-70
2022/12/12 12:21:37;;;;;;;5.77;5.37;;;17.00;61.30;;;;;;5081916;27;43479;-71
2022/12/12 12:24:16;;;;;;;6.00;5.60;;;17.00;61.30;;;;;;5068377;28;43450;-71
2022/12/12 12:26:47;;;;;;;5.77;5.27;;;17.00;61.30;;;;;;5088227;28;43490;-72
2022/12/12 12:29:28;;;;;;;5.60;5.30;;;17.00;61.20;;;;;;5081052;28;43862;-70
2022/12/12 12:32:00;;;;;;;4.97;4.67;;;17.00;61.20;;;;;;5075775;28;43429;-70
2022/12/12 12:34:30;;;;;;;4.90;4.60;;;17.00;61.20;;;;;;5081005;28;43884;-72
2022/12/12 12:37:06;;;;;;;5.37;5.07;;;16.90;61.10;;;;;;5082198;28;43493;-73
2022/12/12 12:39:54;;;;;;;5.77;5.20;;;17.00;61.20;;;;;;5079251;28;43923;-70
2022/12/12 12:42:32;;;;;;;5.37;4.97;;;16.90;61.20;;;;;;5084832;28;43981;-71
2022/12/12 12:45:03;;;;;;;6.60;5.63;;;16.90;61.20;;;;;;5080506;28;43555;-72
2022/12/12 12:47:34;;;;;;;6.73;5.33;;;17.00;61.20;;;;;;5084325;27;43904;-71
2022/12/12 12:50:04;;;;;;;9.33;6.50;;;17.10;61.00;;;;;;5076843;28;43885;-71
2022/12/12 12:52:34;;;;;;;8.10;6.60;;;17.10;60.80;;;;;;5082981;28;43991;-72
2022/12/12 12:55:04;;;;;;;8.60;6.10;;;17.10;60.60;;;;;;5081765;28;43431;-71
2022/12/12 12:57:34;;;;;;;11.50;7.20;;;17.10;60.70;;;;;;5077137;28;43480;-70
2022/12/12 13:00:05;;;;;;;12.63;7.67;;;17.10;60.80;;;;;;5082020;28;43805;-71
2022/12/12 13:02:38;;;;;;;15.60;8.00;;;17.00;60.50;;;;;;5084097;28;43426;-73
2022/12/12 13:05:07;;;;;;;9.93;7.13;;;17.00;60.60;;;;;;5071328;28;43470;-71
2022/12/12 13:07:40;;;;;;;10.60;7.47;;;17.00;60.80;;;;;;5081710;28;43406;-71
2022/12/12 13:10:16;;;;;;;11.63;7.53;;;17.00;60.90;;;;;;5066753;28;45277;-70
2022/12/12 13:12:47;;;;;;;11.60;7.23;;;17.00;60.90;;;;;;5083847;28;44359;-71
2022/12/12 13:15:22;;;;;;;11.10;7.80;;;17.00;61.10;;;;;;5087296;28;43530;-72
2022/12/12 13:17:54;;;;;;;10.43;7.50;;;17.00;61.90;;;;;;5080463;28;43470;-71
2022/12/12 13:20:23;;;;;;;10.57;6.93;;;17.00;61.10;;;;;;5083803;28;43838;-70